Time;durP1;ratioP1;P1;durP2;ratioP2;P2;SDS_P1;SDS_P2;PMS_P1;PMS_P2;Temp;Humidity;BMP_temperature;BMP_pressure;BME280_temperature;BME280_humidity;BME280_pressure;Samples;Min_cycle;Max_cycle;Signal;HPM_P1;HPM_P2
2022/08/31 00:04:01;;;;;;;;;;;;;;;18.06;99.02;95287.28;5135500;27;1076;-47
2022/08/31 00:06:29;;;;;;;;;;;;;;;18.08;99.09;95282.50;5136615;27;1902;-47
2022/08/31 00:08:55;;;;;;;;;;;;;;;18.18;98.16;95284.81;5136437;27;1076;-47
2022/08/31 00:11:27;;;;;;;;;;;;;;;18.12;98.27;95291.88;5136102;27;1074;-47
2022/08/31 00:13:58;;;;;;;;;;;;;;;18.04;98.39;95286.66;5136199;27;992;-47
2022/08/31 00:16:25;;;;;;;;;;;;;;;18.01;97.84;95289.75;5135855;27;1031;-47
2022/08/31 00:18:51;;;;;;;;;;;;;;;17.94;98.42;95291.59;5136264;27;972;-47
2022/08/31 00:21:21;;;;;;;;;;;;;;;17.90;98.61;95295.75;5135942;27;1091;-47
2022/08/31 00:23:48;;;;;;;;;;;;;;;17.80;98.71;95290.69;5136272;27;984;-47
2022/08/31 00:26:14;;;;;;;;;;;;;;;17.84;98.51;95293.84;5135614;27;1906;-47
2022/08/31 00:28:40;;;;;;;;;;;;;;;17.82;98.14;95288.63;5135891;27;965;-47
2022/08/31 00:31:06;;;;;;;;;;;;;;;17.81;97.96;95292.34;5135831;27;1011;-47
2022/08/31 00:33:32;;;;;;;;;;;;;;;17.87;97.33;95288.91;5135976;27;1048;-47
2022/08/31 00:35:58;;;;;;;;;;;;;;;18.02;96.20;95294.16;5135610;27;1230;-47
2022/08/31 00:38:24;;;;;;;;;;;;;;;18.07;96.32;95290.81;5135662;27;1043;-47
2022/08/31 00:40:50;;;;;;;;;;;;;;;17.92;96.31;95294.50;5135708;27;1052;-47
2022/08/31 00:43:37;;;;;;;;;;;;;;;17.82;96.87;95285.09;5135322;27;1962;-47
2022/08/31 00:46:03;;;;;;;;;;;;;;;17.72;97.36;95291.72;5135477;27;1933;-47
2022/08/31 00:48:30;;;;;;;;;;;;;;;17.54;97.11;95292.25;5135635;27;995;-47
2022/08/31 00:50:56;;;;;;;;;;;;;;;17.43;97.49;95302.81;5135575;27;1039;-47
2022/08/31 00:53:23;;;;;;;;;;;;;;;17.41;97.21;95297.59;5135146;27;1035;-47
2022/08/31 00:55:49;;;;;;;;;;;;;;;17.49;98.06;95302.00;5135324;27;1031;-46
2022/08/31 00:58:15;;;;;;;;;;;;;;;17.51;97.23;95303.47;5135320;27;948;-47
2022/08/31 01:00:41;;;;;;;;;;;;;;;17.46;96.58;95300.53;5135458;27;1015;-47
2022/08/31 01:03:08;;;;;;;;;;;;;;;17.41;97.14;95310.28;5135105;27;1067;-47
2022/08/31 01:05:35;;;;;;;;;;;;;;;17.39;97.59;95309.66;5135272;27;1015;-47
2022/08/31 01:08:01;;;;;;;;;;;;;;;17.35;96.67;95304.63;5134849;27;1917;-47
2022/08/31 01:10:30;;;;;;;;;;;;;;;17.33;97.09;95311.28;5135356;27;1047;-47
2022/08/31 01:12:57;;;;;;;;;;;;;;;17.26;97.50;95308.53;5134884;27;1004;-47
2022/08/31 01:15:23;;;;;;;;;;;;;;;17.29;96.47;95307.31;5134950;27;991;-47
2022/08/31 01:17:51;;;;;;;;;;;;;;;17.36;95.75;95314.41;5134893;27;1060;-46
2022/08/31 01:20:23;;;;;;;;;;;;;;;17.50;95.04;95312.63;5134950;27;1039;-47
2022/08/31 01:23:14;;;;;;;;;;;;;;;17.34;94.75;95305.69;5134730;27;961;-47
2022/08/31 01:25:42;;;;;;;;;;;;;;;17.05;96.20;95319.41;5134993;27;1914;-46
2022/08/31 01:28:08;;;;;;;;;;;;;;;16.95;95.57;95327.84;5134744;27;1003;-47
2022/08/31 01:30:35;;;;;;;;;;;;;;;17.01;95.67;95320.84;5134852;27;954;-47
2022/08/31 01:33:01;;;;;;;;;;;;;;;17.09;96.05;95320.69;5134657;27;1023;-47
2022/08/31 01:35:27;;;;;;;;;;;;;;;17.03;96.13;95316.91;5134473;27;1072;-47
2022/08/31 01:37:53;;;;;;;;;;;;;;;17.03;96.11;95322.31;5134492;27;1023;-47
2022/08/31 01:40:19;;;;;;;;;;;;;;;17.10;95.52;95314.25;5134735;27;965;-47
2022/08/31 01:42:45;;;;;;;;;;;;;;;17.20;94.53;95317.44;5134596;27;973;-47
2022/08/31 01:45:11;;;;;;;;;;;;;;;17.06;94.93;95321.09;5148690;27;1154;-46
2022/08/31 01:47:38;;;;;;;;;;;;;;;16.85;95.56;95324.69;5155129;27;1984;-46
2022/08/31 01:50:05;;;;;;;;;;;;;;;16.77;96.68;95323.75;5155069;27;1087;-47
2022/08/31 01:52:32;;;;;;;;;;;;;;;16.88;96.16;95325.09;5155288;27;1043;-47
2022/08/31 01:54:59;;;;;;;;;;;;;;;16.89;96.38;95329.47;5155370;27;971;-47
2022/08/31 01:57:25;;;;;;;;;;;;;;;16.85;95.88;95328.22;5155124;27;973;-47
2022/08/31 01:59:51;;;;;;;;;;;;;;;16.84;96.74;95328.41;5155202;27;980;-49
2022/08/31 02:02:17;;;;;;;;;;;;;;;16.81;96.64;95337.69;5154925;27;1094;-49
2022/08/31 02:04:44;;;;;;;;;;;;;;;16.79;96.19;95335.19;5154899;27;948;-49
2022/08/31 02:07:09;;;;;;;;;;;;;;;16.77;96.51;95334.56;5154795;27;1913;-49
2022/08/31 02:09:35;;;;;;;;;;;;;;;16.80;96.18;95333.31;5155028;27;976;-49
2022/08/31 02:12:02;;;;;;;;;;;;;;;16.66;95.73;95336.94;5155138;27;960;-49
2022/08/31 02:14:28;;;;;;;;;;;;;;;16.63;96.79;95329.22;5154811;27;1028;-50
2022/08/31 02:16:54;;;;;;;;;;;;;;;16.69;96.01;95336.53;5154969;27;1095;-49
2022/08/31 02:19:20;;;;;;;;;;;;;;;16.73;96.39;95329.72;5154551;27;973;-49
2022/08/31 02:21:46;;;;;;;;;;;;;;;16.69;96.49;95333.84;5155143;27;1064;-49
2022/08/31 02:24:12;;;;;;;;;;;;;;;16.66;96.46;95334.25;5154834;27;1054;-49
2022/08/31 02:26:39;;;;;;;;;;;;;;;16.65;96.35;95327.16;5156284;27;1990;-49
2022/08/31 02:29:08;;;;;;;;;;;;;;;16.63;96.36;95331.94;5158888;27;1025;-50
2022/08/31 02:31:35;;;;;;;;;;;;;;;16.56;95.67;95327.31;5158987;27;988;-50
2022/08/31 02:34:01;;;;;;;;;;;;;;;16.54;94.58;95329.38;5158673;27;1047;-50
2022/08/31 02:36:27;;;;;;;;;;;;;;;16.39;95.94;95331.31;5158735;27;1321;-50
2022/08/31 02:38:53;;;;;;;;;;;;;;;16.50;96.36;95328.06;5158816;27;1007;-50
2022/08/31 02:41:19;;;;;;;;;;;;;;;16.49;96.61;95330.97;5158864;27;969;-49
2022/08/31 02:43:45;;;;;;;;;;;;;;;16.46;96.54;95326.78;5156531;27;1156;-50
2022/08/31 02:46:11;;;;;;;;;;;;;;;16.50;96.82;95319.16;5137774;27;1979;-50
2022/08/31 02:48:37;;;;;;;;;;;;;;;16.53;95.47;95329.56;5137636;27;984;-50
2022/08/31 02:51:05;;;;;;;;;;;;;;;16.57;95.99;95322.75;5138016;27;941;-50
2022/08/31 02:53:31;;;;;;;;;;;;;;;16.54;96.53;95326.69;5137804;27;1051;-50
2022/08/31 02:55:57;;;;;;;;;;;;;;;16.51;96.31;95318.13;5137860;27;989;-50
2022/08/31 02:58:23;;;;;;;;;;;;;;;16.43;95.17;95321.78;5137389;27;1093;-49
2022/08/31 03:00:49;;;;;;;;;;;;;;;16.26;95.52;95317.66;5138229;27;1051;-50
2022/08/31 03:03:16;;;;;;;;;;;;;;;16.20;95.61;95324.66;5137437;27;1071;-49
2022/08/31 03:05:42;;;;;;;;;;;;;;;16.15;96.60;95322.56;5137671;27;1040;-49
2022/08/31 03:08:08;;;;;;;;;;;;;;;16.14;97.17;95330.81;5137606;27;999;-49
2022/08/31 03:10:34;;;;;;;;;;;;;;;16.09;96.58;95325.19;5137467;27;1066;-49
2022/08/31 03:13:00;;;;;;;;;;;;;;;16.16;96.42;95332.31;5137468;27;1055;-49
2022/08/31 03:15:27;;;;;;;;;;;;;;;16.28;95.99;95321.03;5137169;27;1039;-49
2022/08/31 03:17:53;;;;;;;;;;;;;;;16.35;95.07;95314.66;5137271;27;1036;-49
2022/08/31 03:20:20;;;;;;;;;;;;;;;16.23;95.23;95318.06;5137015;27;1085;-50
2022/08/31 03:22:47;;;;;;;;;;;;;;;16.22;96.01;95319.06;5137230;27;1091;-49
2022/08/31 03:25:13;;;;;;;;;;;;;;;16.32;95.76;95317.75;5136904;27;1019;-49
2022/08/31 03:27:39;;;;;;;;;;;;;;;16.36;95.79;95320.88;5137515;27;1984;-49
2022/08/31 03:30:07;;;;;;;;;;;;;;;16.34;96.41;95320.25;5136878;27;965;-50
2022/08/31 03:32:33;;;;;;;;;;;;;;;16.27;96.36;95314.78;5136999;27;944;-50
2022/08/31 03:34:59;;;;;;;;;;;;;;;16.08;96.19;95315.41;5136916;27;1182;-50
2022/08/31 03:37:25;;;;;;;;;;;;;;;16.10;95.95;95313.34;5136390;27;1083;-50
2022/08/31 03:39:51;;;;;;;;;;;;;;;16.11;96.10;95312.34;5135901;27;1095;-50
2022/08/31 03:42:18;;;;;;;;;;;;;;;16.03;95.27;95316.00;5137260;27;1027;-50
2022/08/31 03:44:47;;;;;;;;;;;;;;;15.93;95.61;95313.59;5146937;27;1153;-49
2022/08/31 03:47:13;;;;;;;;;;;;;;;15.99;96.88;95315.53;5157289;27;1929;-50
2022/08/31 03:49:39;;;;;;;;;;;;;;;16.10;96.42;95313.34;5157440;27;961;-50
2022/08/31 03:52:05;;;;;;;;;;;;;;;16.11;96.49;95313.16;5157477;27;960;-49
2022/08/31 03:54:31;;;;;;;;;;;;;;;16.11;95.90;95310.47;5157292;27;1032;-49
2022/08/31 03:56:57;;;;;;;;;;;;;;;16.14;96.83;95310.09;5157345;27;960;-49
2022/08/31 03:59:23;;;;;;;;;;;;;;;16.05;96.26;95316.66;5156996;27;952;-50
2022/08/31 04:01:49;;;;;;;;;;;;;;;15.88;95.25;95321.44;5157209;27;1023;-50
2022/08/31 04:04:16;;;;;;;;;;;;;;;15.84;97.03;95327.38;5157263;27;940;-50
2022/08/31 04:06:43;;;;;;;;;;;;;;;15.93;97.04;95323.53;5156926;27;1992;-50
2022/08/31 04:09:09;;;;;;;;;;;;;;;15.96;97.05;95326.69;5157114;27;1040;-50
2022/08/31 04:11:38;;;;;;;;;;;;;;;16.04;96.74;95322.22;5156828;27;1933;-49
2022/08/31 04:14:04;;;;;;;;;;;;;;;16.12;96.77;95322.09;5156900;27;988;-49
2022/08/31 04:16:31;;;;;;;;;;;;;;;16.16;96.88;95321.53;5156710;27;1095;-49
2022/08/31 04:18:57;;;;;;;;;;;;;;;16.21;97.07;95318.25;5156715;27;1091;-49
2022/08/31 04:21:24;;;;;;;;;;;;;;;16.26;95.82;95318.53;5156757;27;1011;-50
2022/08/31 04:23:51;;;;;;;;;;;;;;;16.27;95.76;95316.66;5156701;27;1279;-50
2022/08/31 04:26:19;;;;;;;;;;;;;;;16.25;95.55;95311.44;5156360;27;1976;-50
2022/08/31 04:28:45;;;;;;;;;;;;;;;16.13;95.25;95305.72;5156628;27;1052;-49
2022/08/31 04:31:11;;;;;;;;;;;;;;;16.14;95.16;95299.31;5156580;27;1039;-49
2022/08/31 04:33:38;;;;;;;;;;;;;;;16.13;95.40;95299.50;5156791;27;1059;-49
2022/08/31 04:36:08;;;;;;;;;;;;;;;16.15;96.04;95298.28;5156483;27;1321;-49
2022/08/31 04:38:34;;;;;;;;;;;;;;;16.13;97.56;95294.94;5156420;27;1036;-49
2022/08/31 04:41:04;;;;;;;;;;;;;;;16.19;97.62;95293.34;5156205;27;1115;-49
2022/08/31 04:43:31;;;;;;;;;;;;;;;16.25;97.10;95291.72;5156283;27;973;-50
2022/08/31 04:45:57;;;;;;;;;;;;;;;16.24;97.48;95293.59;5135602;27;1940;-49
2022/08/31 04:48:23;;;;;;;;;;;;;;;16.24;97.85;95287.34;5135460;27;1024;-49
2022/08/31 04:50:49;;;;;;;;;;;;;;;16.28;98.09;95288.66;5134882;27;1269;-50
2022/08/31 04:53:15;;;;;;;;;;;;;;;16.31;96.13;95285.56;5135452;27;1035;-49
2022/08/31 04:55:42;;;;;;;;;;;;;;;16.23;96.09;95283.81;5135214;27;1099;-49
2022/08/31 04:58:08;;;;;;;;;;;;;;;16.39;97.11;95283.56;5135217;27;999;-49
2022/08/31 05:00:35;;;;;;;;;;;;;;;16.57;96.89;95280.38;5135108;27;1091;-50
2022/08/31 05:03:01;;;;;;;;;;;;;;;16.82;96.07;95277.28;5135431;27;972;-49
2022/08/31 05:05:27;;;;;;;;;;;;;;;17.07;93.93;95274.13;5135210;27;1023;-49
2022/08/31 05:07:53;;;;;;;;;;;;;;;17.14;94.32;95275.00;5135042;27;1905;-49
2022/08/31 05:10:20;;;;;;;;;;;;;;;17.20;95.17;95282.31;5135020;27;1017;-49
2022/08/31 05:12:46;;;;;;;;;;;;;;;17.20;95.24;95278.78;5135007;27;964;-49
2022/08/31 05:15:12;;;;;;;;;;;;;;;17.24;95.73;95269.22;5135230;27;960;-50
2022/08/31 05:17:38;;;;;;;;;;;;;;;17.34;94.47;95269.72;5135005;27;999;-50
2022/08/31 05:20:05;;;;;;;;;;;;;;;17.33;96.24;95262.63;5134894;27;1044;-50
2022/08/31 05:22:31;;;;;;;;;;;;;;;17.48;96.16;95266.03;5134668;27;1028;-49
2022/08/31 05:24:57;;;;;;;;;;;;;;;17.64;96.03;95272.13;5134963;27;1044;-50
2022/08/31 05:27:23;;;;;;;;;;;;;;;17.85;95.93;95265.78;5134401;27;2000;-50
2022/08/31 05:29:49;;;;;;;;;;;;;;;18.09;95.22;95261.69;5135022;27;1032;-49
2022/08/31 05:32:15;;;;;;;;;;;;;;;18.27;94.55;95271.94;5134689;27;964;-50
2022/08/31 05:38:04;;;;;;;;;;;;;;;18.21;94.91;95264.59;3815678;27;2208;-50
2022/08/31 05:40:30;;;;;;;;;;;;;;;18.17;96.03;95274.19;5134830;27;977;-50
2022/08/31 05:42:58;;;;;;;;;;;;;;;18.23;94.94;95276.91;5134634;27;1019;-50
2022/08/31 05:45:24;;;;;;;;;;;;;;;18.25;96.18;95273.97;5150403;27;1855;-52
2022/08/31 05:47:50;;;;;;;;;;;;;;;18.39;94.60;95277.56;5154993;27;1906;-50
2022/08/31 05:50:17;;;;;;;;;;;;;;;18.44;95.32;95283.16;5155068;27;1028;-50
2022/08/31 05:52:43;;;;;;;;;;;;;;;18.42;95.16;95277.97;5154981;27;957;-50
2022/08/31 05:55:10;;;;;;;;;;;;;;;18.38;94.56;95273.16;5155319;27;1040;-50
2022/08/31 05:57:39;;;;;;;;;;;;;;;18.47;94.95;95274.63;5155096;27;1008;-50
2022/08/31 06:00:06;;;;;;;;;;;;;;;18.43;94.82;95271.50;5155037;27;1031;-50
2022/08/31 06:02:32;;;;;;;;;;;;;;;18.42;95.37;95272.56;5154067;27;1146;-51
2022/08/31 06:04:58;;;;;;;;;;;;;;;18.53;95.14;95269.25;5155046;27;1019;-50
2022/08/31 06:07:25;;;;;;;;;;;;;;;18.63;94.99;95276.94;5155145;27;1905;-51
2022/08/31 06:09:51;;;;;;;;;;;;;;;18.69;95.40;95283.41;5155171;27;1039;-51
2022/08/31 06:12:18;;;;;;;;;;;;;;;18.94;94.51;95275.50;5154699;27;1091;-51
2022/08/31 06:14:45;;;;;;;;;;;;;;;19.06;93.29;95268.38;5155075;27;972;-50
2022/08/31 06:17:11;;;;;;;;;;;;;;;19.42;91.90;95267.03;5154640;27;1859;-51
2022/08/31 06:19:38;;;;;;;;;;;;;;;19.67;89.04;95274.47;5154881;27;1040;-50
2022/08/31 06:22:04;;;;;;;;;;;;;;;19.89;90.58;95266.91;5154800;27;1090;-51
2022/08/31 06:24:30;;;;;;;;;;;;;;;19.91;88.88;95269.41;5154997;27;1110;-51
2022/08/31 06:26:56;;;;;;;;;;;;;;;19.56;88.65;95275.97;5154679;27;1913;-51
2022/08/31 06:29:23;;;;;;;;;;;;;;;19.15;90.70;95270.88;5154715;27;1858;-51
2022/08/31 06:31:49;;;;;;;;;;;;;;;18.91;91.46;95271.34;5154679;27;1007;-52
2022/08/31 06:34:17;;;;;;;;;;;;;;;18.81;94.64;95275.50;5154589;27;1035;-51
2022/08/31 06:36:43;;;;;;;;;;;;;;;18.92;93.47;95278.41;5154839;27;965;-51
2022/08/31 06:39:11;;;;;;;;;;;;;;;19.09;93.20;95272.56;5136189;27;1285;-51
2022/08/31 06:41:38;;;;;;;;;;;;;;;19.76;90.01;95285.94;5154738;27;1136;-52
2022/08/31 06:44:06;;;;;;;;;;;;;;;20.27;87.27;95279.63;5150014;27;1180;-51
2022/08/31 06:46:33;;;;;;;;;;;;;;;20.90;81.98;95277.94;5133851;28;2023;-51
2022/08/31 06:48:59;;;;;;;;;;;;;;;22.83;75.71;95272.84;5133762;28;1003;-52
2022/08/31 06:51:25;;;;;;;;;;;;;;;22.78;74.81;95270.84;5134206;28;1052;-52
2022/08/31 06:53:51;;;;;;;;;;;;;;;23.92;71.08;95269.66;5133885;28;1183;-51
2022/08/31 06:56:19;;;;;;;;;;;;;;;26.80;61.69;95276.69;5133923;28;944;-52
2022/08/31 06:58:46;;;;;;;;;;;;;;;29.05;53.92;95281.72;5133788;28;988;-51
2022/08/31 07:01:14;;;;;;;;;;;;;;;30.91;49.13;95289.22;5133699;28;1095;-50
2022/08/31 07:03:42;;;;;;;;;;;;;;;31.81;46.65;95285.13;5133572;28;1071;-50
2022/08/31 07:06:17;;;;;;;;;;;;;;;32.34;44.72;95294.50;5133821;28;1913;-50
2022/08/31 07:08:44;;;;;;;;;;;;;;;31.92;45.37;95294.13;5133548;28;1031;-50
2022/08/31 07:11:15;;;;;;;;;;;;;;;30.02;49.95;95298.16;5133683;28;1011;-50
2022/08/31 07:13:41;;;;;;;;;;;;;;;28.09;56.21;95294.94;5136043;27;1028;-50
2022/08/31 07:16:09;;;;;;;;;;;;;;;28.10;55.78;95297.41;5137273;27;972;-50
2022/08/31 07:18:35;;;;;;;;;;;;;;;25.37;64.19;95298.50;5137447;27;1083;-49
2022/08/31 07:21:06;;;;;;;;;;;;;;;23.81;71.67;95292.34;5137256;27;1964;-49
2022/08/31 07:23:32;;;;;;;;;;;;;;;23.22;74.95;95299.69;5137195;27;1039;-49
2022/08/31 07:26:02;;;;;;;;;;;;;;;22.75;76.43;95303.19;5137197;27;1910;-49
2022/08/31 07:28:28;;;;;;;;;;;;;;;22.57;78.79;95298.63;5136971;27;1019;-50
2022/08/31 07:30:54;;;;;;;;;;;;;;;22.41;79.25;95300.94;5137090;27;975;-52
2022/08/31 07:33:20;;;;;;;;;;;;;;;22.48;78.91;95292.69;5136782;27;1040;-54
2022/08/31 07:35:46;;;;;;;;;;;;;;;22.70;79.05;95303.88;5137248;27;1056;-51
2022/08/31 07:44:01;;;;;;;;;;;;;;;23.77;72.75;95300.16;5077208;28;1231;-51
2022/08/31 07:46:30;;;;;;;;;;;;;;;24.56;68.51;95301.47;5131778;27;1910;-51
2022/08/31 07:48:57;;;;;;;;;;;;;;;24.98;70.23;95298.38;5157317;27;1020;-51
2022/08/31 07:51:23;;;;;;;;;;;;;;;25.03;70.52;95297.66;5157416;27;1063;-52
2022/08/31 07:53:50;;;;;;;;;;;;;;;24.69;68.51;95297.63;5157174;27;1043;-50
2022/08/31 07:56:16;;;;;;;;;;;;;;;24.03;72.28;95288.94;5139091;27;988;-50
2022/08/31 07:58:44;;;;;;;;;;;;;;;23.49;75.30;95289.97;5157322;27;1047;-50
2022/08/31 08:01:10;;;;;;;;;;;;;;;23.16;75.95;95299.59;5157297;27;1024;-50
2022/08/31 08:03:42;;;;;;;;;;;;;;;23.04;77.09;95296.03;5157136;27;1003;-51
2022/08/31 08:06:14;;;;;;;;;;;;;;;22.80;77.78;95295.13;5156997;27;1910;-49
2022/08/31 08:08:41;;;;;;;;;;;;;;;22.71;78.46;95294.66;5156910;27;1080;-49
2022/08/31 08:11:09;;;;;;;;;;;;;;;22.52;79.69;95295.75;5157170;27;1019;-50
2022/08/31 08:13:35;;;;;;;;;;;;;;;22.51;80.11;95294.94;5157042;27;1035;-49
2022/08/31 08:16:01;;;;;;;;;;;;;;;22.69;79.17;95296.78;5157021;27;949;-50
2022/08/31 08:18:28;;;;;;;;;;;;;;;22.86;78.75;95296.94;5156809;27;1003;-50
2022/08/31 08:20:54;;;;;;;;;;;;;;;22.86;77.56;95299.66;5156801;27;1056;-50
2022/08/31 08:23:20;;;;;;;;;;;;;;;22.91;77.31;95294.31;5156520;27;1040;-50
2022/08/31 08:25:46;;;;;;;;;;;;;;;23.03;80.47;95301.66;5156177;27;971;-50
2022/08/31 08:28:20;;;;;;;;;;;;;;;23.12;79.80;95298.38;5156301;27;1909;-50
2022/08/31 08:30:47;;;;;;;;;;;;;;;23.22;78.01;95296.97;5156699;27;1060;-51
2022/08/31 08:33:14;;;;;;;;;;;;;;;23.27;77.51;95297.09;5156356;27;965;-51
2022/08/31 08:35:40;;;;;;;;;;;;;;;23.37;76.83;95297.31;5156532;27;964;-51
2022/08/31 08:38:06;;;;;;;;;;;;;;;23.42;75.64;95293.91;5156220;27;1241;-50
2022/08/31 08:40:41;;;;;;;;;;;;;;;23.44;76.96;95294.50;5156428;27;1036;-50
2022/08/31 08:43:11;;;;;;;;;;;;;;;23.59;75.11;95290.19;5156474;27;1053;-51
2022/08/31 08:45:37;;;;;;;;;;;;;;;24.17;73.83;95282.97;5138334;27;1195;-50
2022/08/31 08:48:10;;;;;;;;;;;;;;;24.56;72.14;95274.16;5135384;27;1909;-50
2022/08/31 08:50:37;;;;;;;;;;;;;;;24.89;72.87;95280.72;5135662;27;1067;-51
2022/08/31 08:53:05;;;;;;;;;;;;;;;24.94;71.70;95281.63;5135599;27;1051;-50
2022/08/31 08:55:36;;;;;;;;;;;;;;;25.14;71.16;95283.88;5135268;27;1032;-50
2022/08/31 08:58:04;;;;;;;;;;;;;;;25.07;71.31;95274.19;5135325;27;1122;-51
2022/08/31 09:00:32;;;;;;;;;;;;;;;24.86;72.58;95271.13;5135152;27;961;-50
2022/08/31 09:03:00;;;;;;;;;;;;;;;24.73;74.09;95269.53;5135288;27;1023;-50
2022/08/31 09:05:29;;;;;;;;;;;;;;;24.80;72.85;95263.91;5135172;27;1036;-51
2022/08/31 09:08:08;;;;;;;;;;;;;;;24.67;70.27;95262.31;5135115;27;1996;-50
2022/08/31 09:10:48;;;;;;;;;;;;;;;24.50;71.17;95250.50;5135001;27;1068;-50
2022/08/31 09:13:35;;;;;;;;;;;;;;;24.71;72.48;95246.25;5134959;27;995;-51
2022/08/31 09:16:07;;;;;;;;;;;;;;;25.03;73.03;95248.41;5135084;27;1039;-50
2022/08/31 09:18:43;;;;;;;;;;;;;;;25.17;71.81;95243.41;5135190;27;1039;-51
2022/08/31 09:21:16;;;;;;;;;;;;;;;25.10;69.48;95235.41;5134718;27;1083;-50
2022/08/31 09:23:47;;;;;;;;;;;;;;;25.22;69.66;95233.38;5134935;27;953;-50
2022/08/31 09:26:17;;;;;;;;;;;;;;;25.36;70.46;95233.06;5134702;27;1988;-52
2022/08/31 09:28:47;;;;;;;;;;;;;;;25.37;69.67;95229.25;5135041;27;1024;-51
2022/08/31 09:31:34;;;;;;;;;;;;;;;25.27;67.91;95213.50;5134627;27;1040;-51
2022/08/31 09:34:01;;;;;;;;;;;;;;;25.28;68.34;95204.22;5134658;27;1020;-50
2022/08/31 09:36:37;;;;;;;;;;;;;;;25.49;68.59;95208.88;5134473;27;1177;-51
2022/08/31 09:39:17;;;;;;;;;;;;;;;25.64;65.23;95210.16;5134414;27;1166;-51
2022/08/31 09:41:43;;;;;;;;;;;;;;;25.63;67.77;95205.75;5134674;27;1020;-50
2022/08/31 09:44:19;;;;;;;;;;;;;;;25.81;67.85;95197.22;5139684;27;1160;-51
2022/08/31 09:46:47;;;;;;;;;;;;;;;25.85;67.98;95187.41;5155167;27;1901;-51
2022/08/31 09:49:21;;;;;;;;;;;;;;;25.88;62.79;95192.38;5155125;27;1866;-51
2022/08/31 09:51:48;;;;;;;;;;;;;;;25.88;65.11;95184.19;5155347;27;1034;-51
2022/08/31 09:57:00;;;;;;;;;;;;;;;25.90;65.22;95178.44;5155157;27;979;-52
2022/08/31 09:59:40;;;;;;;;;;;;;;;26.07;65.74;95184.69;5155579;27;1040;-51
2022/08/31 10:02:09;;;;;;;;;;;;;;;26.27;66.95;95175.00;5155020;27;1036;-50
2022/08/31 10:04:46;;;;;;;;;;;;;;;26.28;66.00;95177.50;5155174;27;1052;-51
2022/08/31 10:07:27;;;;;;;;;;;;;;;26.28;65.96;95182.16;5154891;27;2001;-52
2022/08/31 10:09:55;;;;;;;;;;;;;;;26.15;61.71;95172.44;5154882;27;1040;-51
2022/08/31 10:12:33;;;;;;;;;;;;;;;26.17;64.46;95167.53;5155285;27;1028;-52
2022/08/31 10:15:03;;;;;;;;;;;;;;;26.14;61.85;95154.31;5154995;27;1075;-52
2022/08/31 10:17:32;;;;;;;;;;;;;;;26.20;60.41;95158.78;5154941;27;1106;-52
2022/08/31 10:20:19;;;;;;;;;;;;;;;26.21;62.64;95149.47;5154806;27;987;-52
2022/08/31 10:22:49;;;;;;;;;;;;;;;26.24;62.35;95146.22;5154786;27;1100;-52
2022/08/31 10:25:20;;;;;;;;;;;;;;;26.19;61.01;95134.38;5154836;27;1048;-51
2022/08/31 10:27:54;;;;;;;;;;;;;;;26.27;62.14;95129.28;5154989;27;1983;-50
2022/08/31 10:30:29;;;;;;;;;;;;;;;26.45;60.89;95129.97;5154672;27;1055;-51
2022/08/31 10:32:58;;;;;;;;;;;;;;;26.43;57.28;95123.91;5155060;27;1032;-51
2022/08/31 10:35:36;;;;;;;;;;;;;;;26.33;59.12;95116.41;5154757;27;1173;-51
2022/08/31 10:38:16;;;;;;;;;;;;;;;26.46;60.32;95110.53;5154659;27;1807;-51
2022/08/31 10:40:46;;;;;;;;;;;;;;;26.62;61.29;95099.69;5154742;27;972;-50
2022/08/31 10:43:16;;;;;;;;;;;;;;;26.65;60.12;95105.47;5154422;27;1036;-51
2022/08/31 10:45:43;;;;;;;;;;;;;;;26.47;57.36;95109.41;5136149;27;1184;-51
2022/08/31 10:48:11;;;;;;;;;;;;;;;26.53;60.18;95107.53;5135659;27;1906;-50
2022/08/31 10:50:44;;;;;;;;;;;;;;;26.65;62.49;95108.22;5137967;27;1063;-50
2022/08/31 10:53:36;;;;;;;;;;;;;;;26.78;59.05;95097.88;5137957;27;961;-50
2022/08/31 10:56:23;;;;;;;;;;;;;;;26.86;58.88;95102.84;5133177;27;1802;-50
2022/08/31 10:59:01;;;;;;;;;;;;;;;26.90;60.09;95093.03;5086308;27;1291;-50
2022/08/31 11:01:38;;;;;;;;;;;;;;;26.90;60.18;95084.78;5137546;27;1046;-50
2022/08/31 11:04:04;;;;;;;;;;;;;;;26.99;61.00;95085.09;5137586;27;1033;-51
2022/08/31 11:07:02;;;;;;;;;;;;;;;27.06;60.43;95078.28;5137505;27;1918;-50
2022/08/31 11:09:32;;;;;;;;;;;;;;;27.08;60.21;95070.59;5081273;27;1241;-51
2022/08/31 11:12:07;;;;;;;;;;;;;;;27.04;59.26;95071.41;5137493;27;1100;-50
2022/08/31 11:14:44;;;;;;;;;;;;;;;27.06;57.76;95074.72;5137342;27;1056;-51
2022/08/31 11:17:22;;;;;;;;;;;;;;;27.11;58.03;95073.91;5137341;27;953;-50
2022/08/31 11:19:58;;;;;;;;;;;;;;;27.17;59.73;95081.09;5137503;27;1075;-51
2022/08/31 11:22:27;;;;;;;;;;;;;;;27.22;58.21;95079.19;5137003;27;1087;-50
2022/08/31 11:25:13;;;;;;;;;;;;;;;27.23;59.24;95072.59;5137176;27;1028;-50
2022/08/31 11:27:40;;;;;;;;;;;;;;;27.29;58.30;95069.91;5137154;27;1909;-50
2022/08/31 11:30:12;;;;;;;;;;;;;;;27.34;59.08;95067.16;5137075;27;1087;-50
2022/08/31 11:32:44;;;;;;;;;;;;;;;27.41;59.45;95063.09;5136979;27;1053;-50
2022/08/31 11:35:11;;;;;;;;;;;;;;;27.45;59.06;95058.72;5137023;27;1035;-51
2022/08/31 11:37:54;;;;;;;;;;;;;;;27.40;57.02;95066.94;5136608;27;1095;-51
2022/08/31 11:40:42;;;;;;;;;;;;;;;27.35;56.54;95068.81;5137099;27;972;-51
2022/08/31 11:43:13;;;;;;;;;;;;;;;27.17;54.07;95062.69;5136776;27;1043;-50
2022/08/31 11:45:40;;;;;;;;;;;;;;;27.18;57.12;95050.59;5154825;27;1212;-51
2022/08/31 11:48:09;;;;;;;;;;;;;;;27.16;55.43;95046.50;5157143;27;1901;-50
2022/08/31 11:50:34;;;;;;;;;;;;;;;27.23;55.46;95045.16;5157859;27;960;-50
2022/08/31 11:53:18;;;;;;;;;;;;;;;27.23;52.55;95028.69;5157404;27;957;-50
2022/08/31 11:55:47;;;;;;;;;;;;;;;27.28;51.23;95025.19;5157539;27;956;-51
2022/08/31 11:58:18;;;;;;;;;;;;;;;27.29;51.07;95032.31;5157004;27;1103;-50
2022/08/31 12:00:46;;;;;;;;;;;;;;;27.38;52.54;95027.94;5156518;27;996;-51
2022/08/31 12:03:31;;;;;;;;;;;;;;;27.44;54.21;95024.09;5157177;27;1070;-51
2022/08/31 12:05:57;;;;;;;;;;;;;;;27.44;54.42;95018.63;5157189;27;1044;-50
2022/08/31 12:08:30;;;;;;;;;;;;;;;27.44;55.04;95021.38;5156756;27;1982;-51
2022/08/31 12:11:01;;;;;;;;;;;;;;;27.47;54.20;95011.78;5157069;27;980;-50
2022/08/31 12:13:35;;;;;;;;;;;;;;;27.41;55.92;95010.09;5156877;27;1185;-50
2022/08/31 12:16:02;;;;;;;;;;;;;;;27.44;56.50;95007.63;5157056;27;1023;-50
2022/08/31 12:18:31;;;;;;;;;;;;;;;27.47;54.56;95009.03;5156952;27;984;-50
2022/08/31 12:24:11;;;;;;;;;;;;;;;27.60;54.46;95015.91;5156900;27;1003;-51
2022/08/31 12:26:41;;;;;;;;;;;;;;;27.54;51.38;95015.06;5156672;27;1992;-51
2022/08/31 12:29:07;;;;;;;;;;;;;;;27.48;52.31;95026.31;5156758;27;965;-51
2022/08/31 12:31:33;;;;;;;;;;;;;;;27.40;51.14;95022.19;5156586;27;944;-50
2022/08/31 12:34:05;;;;;;;;;;;;;;;27.25;51.34;95031.19;5156353;27;1059;-50
2022/08/31 12:36:33;;;;;;;;;;;;;;;27.06;51.46;95031.63;5156808;27;1039;-51
2022/08/31 12:39:11;;;;;;;;;;;;;;;26.96;51.42;95028.84;5156257;27;1119;-50
2022/08/31 12:41:45;;;;;;;;;;;;;;;26.92;53.26;95025.00;5138196;27;1007;-51
2022/08/31 12:44:18;;;;;;;;;;;;;;;26.86;52.39;95020.56;5150535;27;1164;-50
2022/08/31 12:46:53;;;;;;;;;;;;;;;26.86;53.45;95023.31;5135618;27;1969;-51
2022/08/31 12:49:25;;;;;;;;;;;;;;;26.88;54.62;95019.22;5135515;27;1044;-51
2022/08/31 12:51:50;;;;;;;;;;;;;;;26.92;54.76;95019.50;5135503;27;1017;-50
2022/08/31 12:54:35;;;;;;;;;;;;;;;27.03;55.84;95023.97;5135232;27;1048;-50
2022/08/31 12:57:37;;;;;;;;;;;;;;;27.18;56.28;95019.59;5135418;27;1035;-51
2022/08/31 13:00:09;;;;;;;;;;;;;;;27.21;54.27;95030.06;5032023;28;1162;-50
2022/08/31 13:02:39;;;;;;;;;;;;;;;27.26;54.26;95039.16;5119085;27;1107;-51
2022/08/31 13:05:14;;;;;;;;;;;;;;;27.31;55.11;95034.78;5135164;27;983;-50
2022/08/31 13:07:40;;;;;;;;;;;;;;;27.33;54.71;95038.09;5135348;27;1898;-50
2022/08/31 13:10:23;;;;;;;;;;;;;;;27.36;54.21;95026.56;5134752;27;1063;-50
2022/08/31 13:12:51;;;;;;;;;;;;;;;27.42;53.50;95012.56;5135186;27;1003;-50
2022/08/31 13:15:24;;;;;;;;;;;;;;;27.51;54.03;95003.81;5135150;27;977;-50
2022/08/31 13:17:51;;;;;;;;;;;;;;;27.65;55.57;95008.50;5134881;27;1087;-50
2022/08/31 13:20:18;;;;;;;;;;;;;;;27.67;54.41;95004.66;5135190;27;1023;-50
2022/08/31 13:22:53;;;;;;;;;;;;;;;27.71;54.05;95011.25;5135066;27;989;-49
2022/08/31 13:25:32;;;;;;;;;;;;;;;27.75;56.08;95015.91;5135028;27;976;-50
2022/08/31 13:27:58;;;;;;;;;;;;;;;27.81;56.20;95030.50;5134741;27;1978;-50